Time;durP1;ratioP1;P1;durP2;ratioP2;P2;SDS_P1;SDS_P2;PMS_P1;PMS_P2;Temp;Humidity;BMP_temperature;BMP_pressure;BME280_temperature;BME280_humidity;BME280_pressure;Samples;Min_cycle;Max_cycle;Signal;HPM_P1;HPM_P2
2023/07/10 00:01:04;;;;;;;25.35;15.88;;;;;;;19.38;100.00;101614.75;4924734;29;20244;-72
2023/07/10 00:03:32;;;;;;;27.17;15.65;;;;;;;19.40;100.00;101618.69;4927691;29;20414;-75
2023/07/10 00:05:59;;;;;;;29.08;16.30;;;;;;;19.35;100.00;101613.59;4930587;29;20103;-75
2023/07/10 00:08:26;;;;;;;29.65;15.80;;;;;;;19.24;100.00;101606.78;4930358;29;20533;-76
2023/07/10 00:10:53;;;;;;;22.58;15.65;;;;;;;19.28;100.00;101611.03;4931777;29;20062;-72
2023/07/10 00:13:21;;;;;;;23.70;15.25;;;;;;;19.29;100.00;101598.53;4929693;29;20082;-76
2023/07/10 00:15:49;;;;;;;27.67;16.42;;;;;;;19.23;100.00;101599.56;4931483;29;20060;-75
2023/07/10 00:18:20;;;;;;;25.27;14.43;;;;;;;19.22;100.00;101607.25;4927658;29;20063;-74
2023/07/10 00:20:47;;;;;;;26.13;14.65;;;;;;;19.21;100.00;101605.66;4929769;29;20062;-74
2023/07/10 00:23:15;;;;;;;26.77;15.65;;;;;;;19.21;100.00;101605.66;4929445;29;20058;-74
2023/07/10 00:25:42;;;;;;;26.90;14.40;;;;;;;19.16;100.00;101617.50;4925236;29;20106;-75
2023/07/10 00:28:18;;;;;;;24.98;14.38;;;;;;;19.13;100.00;101609.16;4928056;29;20056;-74
2023/07/10 00:30:46;;;;;;;26.83;15.45;;;;;;;19.16;100.00;101603.41;4928695;29;20106;-75
2023/07/10 00:33:15;;;;;;;27.25;16.08;;;;;;;19.15;100.00;101601.06;4930516;29;20047;-74
2023/07/10 00:35:42;;;;;;;23.90;14.82;;;;;;;19.12;100.00;101605.59;4924411;29;20395;-75
2023/07/10 00:38:31;;;;;;;27.38;15.48;;;;;;;19.08;100.00;101624.66;4930228;29;20114;-73
2023/07/10 00:41:01;;;;;;;25.55;15.80;;;;;;;19.01;100.00;101624.88;4925004;29;20158;-73
2023/07/10 00:43:49;;;;;;;27.70;15.35;;;;;;;18.99;100.00;101627.38;4927993;29;20071;-73
2023/07/10 00:46:25;;;;;;;27.80;15.93;;;;;;;18.98;100.00;101625.81;4929739;29;20098;-72
2023/07/10 00:48:56;;;;;;;26.23;15.23;;;;;;;18.97;100.00;101635.47;4930254;29;20066;-72
2023/07/10 00:51:38;;;;;;;30.67;16.65;;;;;;;18.95;100.00;101635.16;4928641;29;20090;-73
2023/07/10 00:54:17;;;;;;;25.25;15.15;;;;;;;18.97;100.00;101643.16;4927868;29;20103;-74
2023/07/10 00:56:45;;;;;;;29.10;15.20;;;;;;;19.01;100.00;101635.38;4923887;29;20122;-73
2023/07/10 00:59:26;;;;;;;25.90;15.82;;;;;;;19.00;100.00;101633.81;4945509;29;20055;-73
2023/07/10 01:02:09;;;;;;;27.05;16.88;;;;;;;19.06;100.00;101640.41;4929008;29;20166;-73
2023/07/10 01:04:39;;;;;;;27.92;17.42;;;;;;;19.09;100.00;101647.97;4926818;29;20672;-73
2023/07/10 01:07:15;;;;;;;27.55;16.48;;;;;;;19.11;100.00;101648.31;4927290;29;20059;-73
2023/07/10 01:09:49;;;;;;;27.65;16.13;;;;;;;19.09;100.00;101642.34;4928597;29;20145;-73
2023/07/10 01:12:17;;;;;;;27.35;15.80;;;;;;;19.11;100.00;101629.34;4929027;29;20107;-73
2023/07/10 01:14:43;;;;;;;30.83;16.83;;;;;;;19.12;100.00;101630.16;4929876;29;20056;-74
2023/07/10 01:17:10;;;;;;;26.15;14.77;;;;;;;19.13;100.00;101640.97;4928768;29;20059;-75
2023/07/10 01:19:38;;;;;;;28.60;17.02;;;;;;;19.14;100.00;101638.97;4938978;28;20142;-73
2023/07/10 01:22:09;;;;;;;22.85;14.35;;;;;;;19.08;100.00;101641.56;4932292;29;20135;-74
2023/07/10 01:24:36;;;;;;;32.53;17.27;;;;;;;19.12;100.00;101636.59;4926783;29;20040;-76
2023/07/10 01:27:06;;;;;;;29.33;17.63;;;;;;;19.14;100.00;101644.59;4928683;29;20275;-74
2023/07/10 01:29:41;;;;;;;25.92;15.77;;;;;;;19.14;100.00;101647.41;4923101;29;20099;-72
2023/07/10 01:32:14;;;;;;;27.02;15.38;;;;;;;19.10;100.00;101649.53;4921402;29;20157;-72
2023/07/10 01:34:52;;;;;;;28.02;16.80;;;;;;;19.10;100.00;101655.97;4926168;29;20087;-72
2023/07/10 01:37:19;;;;;;;31.40;17.42;;;;;;;19.15;100.00;101657.44;4929256;29;20056;-74
2023/07/10 01:39:48;;;;;;;27.08;16.90;;;;;;;19.15;100.00;101663.06;4928373;29;20056;-73
2023/07/10 01:42:14;;;;;;;29.35;17.23;;;;;;;19.15;100.00;101661.06;4928781;29;20139;-74
2023/07/10 01:44:43;;;;;;;29.58;16.95;;;;;;;19.18;100.00;101665.00;4931750;29;20142;-73
2023/07/10 01:47:11;;;;;;;29.25;17.55;;;;;;;19.22;100.00;101663.63;4929452;29;20107;-73
2023/07/10 01:49:58;;;;;;;29.92;16.60;;;;;;;19.18;100.00;101653.72;4931242;29;20060;-75
2023/07/10 01:52:25;;;;;;;25.77;16.42;;;;;;;19.19;100.00;101652.47;4927089;29;20047;-72
2023/07/10 01:54:52;;;;;;;26.90;15.60;;;;;;;19.25;100.00;101653.47;4929628;29;20107;-75
2023/07/10 01:57:23;;;;;;;25.17;15.80;;;;;;;19.25;100.00;101661.91;4931210;29;20048;-75
2023/07/10 01:59:51;;;;;;;24.15;16.08;;;;;;;19.22;100.00;101658.00;4930579;29;20051;-74
2023/07/10 02:02:18;;;;;;;25.50;15.80;;;;;;;19.21;100.00;101650.75;4928113;29;20083;-74
2023/07/10 02:04:45;;;;;;;27.73;16.05;;;;;;;19.26;100.00;101649.41;4929238;29;20972;-74
2023/07/10 02:07:11;;;;;;;25.98;16.55;;;;;;;19.25;100.00;101653.47;4919898;29;20062;-74
2023/07/10 02:09:38;;;;;;;24.60;16.02;;;;;;;19.26;100.00;101638.13;4928199;29;20599;-74
2023/07/10 02:12:05;;;;;;;26.77;17.33;;;;;;;19.19;100.00;101639.16;4929596;29;20095;-75
2023/07/10 02:14:32;;;;;;;30.35;16.90;;;;;;;19.21;100.00;101644.34;4929040;29;20058;-76
2023/07/10 02:16:59;;;;;;;25.70;15.98;;;;;;;19.22;100.00;101648.72;4928885;29;20059;-75
2023/07/10 02:19:25;;;;;;;27.42;16.98;;;;;;;19.23;100.00;101653.13;4928663;29;20060;-74
2023/07/10 02:21:52;;;;;;;29.02;16.95;;;;;;;19.19;100.00;101650.44;4929525;29;20047;-72
2023/07/10 02:24:18;;;;;;;30.45;17.08;;;;;;;19.21;100.00;101647.16;4928907;29;20162;-74
2023/07/10 02:26:45;;;;;;;31.77;17.45;;;;;;;19.24;100.00;101651.91;4927814;29;20079;-75
2023/07/10 02:29:12;;;;;;;27.30;16.35;;;;;;;19.26;100.00;101655.84;4930017;29;20068;-74
2023/07/10 02:31:38;;;;;;;29.17;17.75;;;;;;;19.29;100.00;101662.59;4929083;29;20059;-73
2023/07/10 02:34:05;;;;;;;32.45;17.55;;;;;;;19.18;100.00;101654.47;4927255;29;20051;-75
2023/07/10 02:36:33;;;;;;;26.10;18.00;;;;;;;19.18;100.00;101667.81;4922479;29;20051;-74
2023/07/10 02:38:59;;;;;;;28.48;18.65;;;;;;;19.17;100.00;101675.47;4927404;29;20526;-75
2023/07/10 02:41:26;;;;;;;31.92;19.83;;;;;;;19.16;100.00;101673.91;4926938;29;21577;-73
2023/07/10 02:43:52;;;;;;;29.95;19.73;;;;;;;19.15;100.00;101677.97;4930643;29;20059;-70
2023/07/10 02:46:19;;;;;;;27.50;17.73;;;;;;;19.05;100.00;101676.28;4928657;29;20142;-73
2023/07/10 02:48:45;;;;;;;29.90;20.52;;;;;;;19.10;100.00;101674.91;4928991;29;20494;-72
2023/07/10 02:51:12;;;;;;;27.77;18.27;;;;;;;19.04;100.00;101673.91;4920353;29;20079;-71
2023/07/10 02:53:39;;;;;;;27.02;16.92;;;;;;;18.92;100.00;101664.25;4930119;29;20556;-72
2023/07/10 02:56:05;;;;;;;32.50;19.10;;;;;;;18.90;100.00;101669.53;4929684;29;20084;-75
2023/07/10 02:58:33;;;;;;;31.38;20.75;;;;;;;18.90;100.00;101672.34;4928065;29;20111;-75
2023/07/10 03:01:01;;;;;;;29.92;20.35;;;;;;;18.93;100.00;101667.81;4931845;29;20052;-74
2023/07/10 03:03:29;;;;;;;32.38;21.00;;;;;;;18.97;100.00;101676.97;4928512;29;20098;-74
2023/07/10 03:05:58;;;;;;;32.60;18.88;;;;;;;18.91;100.00;101676.72;4931529;29;20110;-74
2023/07/10 03:08:25;;;;;;;32.00;19.83;;;;;;;18.86;100.00;101680.13;4933098;29;20048;-74
2023/07/10 03:11:03;;;;;;;32.83;19.52;;;;;;;18.92;100.00;101685.97;4931549;29;20095;-72
2023/07/10 03:13:29;;;;;;;32.47;20.00;;;;;;;18.85;100.00;101683.41;4927487;29;20212;-73
2023/07/10 03:16:02;;;;;;;30.88;19.20;;;;;;;18.81;100.00;101694.78;4931945;29;20098;-75
2023/07/10 03:18:29;;;;;;;32.78;20.42;;;;;;;18.76;100.00;101700.19;4934927;28;20166;-74
2023/07/10 03:20:56;;;;;;;32.75;19.88;;;;;;;18.76;100.00;101731.16;4933068;29;20111;-75
2023/07/10 03:23:23;;;;;;;29.60;19.83;;;;;;;18.74;100.00;101728.03;4932901;29;20478;-75
2023/07/10 03:25:50;;;;;;;33.15;20.05;;;;;;;18.76;100.00;101728.34;4930236;29;20582;-74
2023/07/10 03:28:16;;;;;;;34.53;22.63;;;;;;;18.78;100.00;101723.88;4932107;29;20066;-72
2023/07/10 03:30:43;;;;;;;37.75;22.35;;;;;;;18.75;100.00;101716.31;4930243;29;20138;-72
2023/07/10 03:33:12;;;;;;;32.63;21.50;;;;;;;18.80;100.00;101724.19;4933443;29;20059;-72
2023/07/10 03:35:39;;;;;;;38.88;24.48;;;;;;;18.81;100.00;101722.97;4934718;29;20048;-73
2023/07/10 03:38:07;;;;;;;39.17;24.08;;;;;;;18.83;100.00;101726.09;4934170;29;20162;-74
2023/07/10 03:40:33;;;;;;;34.47;21.65;;;;;;;18.80;100.00;101726.22;4933617;29;20058;-73
2023/07/10 03:43:00;;;;;;;38.08;24.08;;;;;;;18.87;100.00;101718.31;4933714;29;20090;-73
2023/07/10 03:45:29;;;;;;;39.85;25.92;;;;;;;18.91;100.00;101706.94;4928820;29;20056;-73
2023/07/10 03:47:55;;;;;;;41.55;24.75;;;;;;;18.99;100.00;101699.84;4933253;29;20139;-75
2023/07/10 03:50:22;;;;;;;39.28;22.95;;;;;;;19.01;100.00;101688.91;4932828;29;20052;-75
2023/07/10 03:52:49;;;;;;;37.05;23.50;;;;;;;19.04;100.00;101697.25;4924837;29;20051;-74
2023/07/10 03:55:15;;;;;;;37.70;23.45;;;;;;;19.03;100.00;101700.50;4932220;29;20581;-74
2023/07/10 03:57:42;;;;;;;35.42;22.10;;;;;;;19.01;100.00;101692.50;4932807;29;20051;-73
2023/07/10 04:00:09;;;;;;;33.33;20.38;;;;;;;19.02;100.00;101693.31;4930682;29;20052;-72
2023/07/10 04:02:35;;;;;;;35.08;20.08;;;;;;;19.03;100.00;101689.22;4932913;29;20139;-73
2023/07/10 04:05:02;;;;;;;39.95;21.17;;;;;;;19.02;100.00;101694.09;4931737;29;20174;-72
2023/07/10 04:07:29;;;;;;;32.38;20.45;;;;;;;19.01;100.00;101695.31;4924443;29;20434;-73
2023/07/10 04:09:55;;;;;;;31.88;20.38;;;;;;;19.01;100.00;101700.19;4927469;29;20126;-75
2023/07/10 04:12:22;;;;;;;30.45;20.52;;;;;;;18.97;100.00;101707.97;4929362;29;20554;-75
2023/07/10 04:14:48;;;;;;;33.95;21.40;;;;;;;18.95;100.00;101705.59;4933429;29;20103;-73
2023/07/10 04:17:15;;;;;;;33.67;20.35;;;;;;;18.95;100.00;101702.00;4931846;29;20055;-74
2023/07/10 04:19:42;;;;;;;31.33;20.58;;;;;;;18.95;100.00;101710.44;4930220;29;20060;-73
2023/07/10 04:22:08;;;;;;;34.30;20.95;;;;;;;18.93;100.00;101705.25;4927990;29;20109;-72
2023/07/10 04:24:35;;;;;;;35.55;23.48;;;;;;;18.97;100.00;101710.78;4933107;29;20103;-73
2023/07/10 04:27:02;;;;;;;36.35;23.48;;;;;;;18.97;100.00;101724.88;4930152;28;20052;-73
2023/07/10 04:29:29;;;;;;;36.20;21.75;;;;;;;18.95;100.00;101721.72;4932462;29;20048;-73
2023/07/10 04:31:55;;;;;;;36.10;22.20;;;;;;;18.96;100.00;101721.25;4946611;28;20998;-74
2023/07/10 04:34:22;;;;;;;42.28;22.25;;;;;;;18.98;100.00;101723.63;4931732;29;20522;-73
2023/07/10 04:36:49;;;;;;;34.92;21.38;;;;;;;18.98;100.00;101721.63;4932712;29;20146;-73
2023/07/10 04:39:16;;;;;;;35.40;21.17;;;;;;;19.01;100.00;101726.31;4927931;29;20066;-74
2023/07/10 04:41:44;;;;;;;34.28;21.15;;;;;;;18.96;100.00;101717.66;4926863;29;20059;-73
2023/07/10 04:44:10;;;;;;;33.22;20.25;;;;;;;19.03;100.00;101734.31;4928624;29;20483;-74
2023/07/10 04:46:37;;;;;;;32.15;21.60;;;;;;;19.06;100.00;101730.59;4927458;29;20126;-76
2023/07/10 04:49:04;;;;;;;34.35;20.80;;;;;;;19.06;100.00;101733.41;4929173;29;20109;-75
2023/07/10 04:51:31;;;;;;;37.53;22.83;;;;;;;19.03;100.00;101737.94;4931810;29;20126;-76
2023/07/10 04:53:57;;;;;;;32.58;19.30;;;;;;;18.91;100.00;101726.69;4930792;29;20142;-73
2023/07/10 04:56:24;;;;;;;31.85;20.05;;;;;;;18.95;100.00;101738.63;4923272;29;20158;-73
2023/07/10 04:58:56;;;;;;;30.50;19.02;;;;;;;18.98;100.00;101732.09;4944123;28;20506;-74
2023/07/10 05:01:26;;;;;;;31.83;19.52;;;;;;;19.00;100.00;101727.56;4928133;29;20134;-73
2023/07/10 05:03:53;;;;;;;31.00;18.80;;;;;;;19.02;100.00;101732.75;4926953;29;20083;-73
2023/07/10 05:06:20;;;;;;;30.25;18.88;;;;;;;19.03;100.00;101742.78;4930730;29;20051;-74
2023/07/10 05:08:47;;;;;;;30.73;17.45;;;;;;;18.97;100.00;101736.91;4930007;29;20059;-73
2023/07/10 05:11:14;;;;;;;34.22;18.20;;;;;;;18.98;100.00;101738.53;4925483;29;20463;-73
2023/07/10 05:13:41;;;;;;;32.50;17.42;;;;;;;18.99;100.00;101742.91;4931958;29;20451;-75
2023/07/10 05:16:07;;;;;;;31.17;17.17;;;;;;;19.03;100.00;101746.41;4929122;29;20050;-73
2023/07/10 05:18:34;;;;;;;27.73;16.30;;;;;;;18.92;100.00;101743.13;4926820;29;20047;-75
2023/07/10 05:21:03;;;;;;;28.15;17.00;;;;;;;18.96;100.00;101748.66;4930655;29;20060;-75
2023/07/10 05:23:30;;;;;;;28.75;16.88;;;;;;;18.97;100.00;101758.69;4930378;29;20482;-76
2023/07/10 05:26:13;;;;;;;28.38;17.58;;;;;;;18.92;100.00;101753.59;4930867;29;20408;-75
2023/07/10 05:28:40;;;;;;;28.80;17.15;;;;;;;18.90;100.00;101747.66;4931453;29;20056;-74
2023/07/10 05:31:09;;;;;;;27.45;16.40;;;;;;;18.90;100.00;101753.28;4926740;29;20052;-72
2023/07/10 05:33:37;;;;;;;27.38;16.63;;;;;;;18.93;100.00;101749.53;4930852;29;20446;-75
2023/07/10 05:36:06;;;;;;;25.65;16.33;;;;;;;18.97;100.00;101739.75;4931686;29;20055;-73
2023/07/10 05:38:34;;;;;;;28.30;16.55;;;;;;;19.03;100.00;101749.22;4916370;29;20520;-75
2023/07/10 05:41:02;;;;;;;27.75;16.38;;;;;;;19.07;100.00;101760.38;4927408;29;20706;-74
2023/07/10 05:43:30;;;;;;;26.55;15.13;;;;;;;19.03;100.00;101765.31;4926153;29;20047;-72
2023/07/10 05:45:58;;;;;;;28.08;16.13;;;;;;;19.08;100.00;101757.13;4931008;29;20119;-75
2023/07/10 05:48:25;;;;;;;30.63;17.42;;;;;;;19.21;100.00;101769.16;4930330;29;20534;-75
2023/07/10 05:50:53;;;;;;;26.70;14.98;;;;;;;19.27;100.00;101763.72;4931169;29;20616;-73
2023/07/10 05:53:19;;;;;;;24.80;15.05;;;;;;;19.33;100.00;101770.38;4929459;29;20051;-74
2023/07/10 05:55:48;;;;;;;24.13;14.07;;;;;;;19.27;100.00;101772.19;4930548;29;20082;-75
2023/07/10 05:58:16;;;;;;;32.47;14.50;;;;;;;19.33;100.00;101764.75;4925526;29;20429;-75
2023/07/10 06:00:45;;;;;;;20.20;11.55;;;;;;;19.30;100.00;101769.28;4930633;29;20080;-74
2023/07/10 06:03:11;;;;;;;21.02;10.90;;;;;;;19.32;100.00;101766.00;4928973;29;20122;-72
2023/07/10 06:05:38;;;;;;;19.83;10.52;;;;;;;19.32;100.00;101771.63;4930534;29;20051;-73
2023/07/10 06:08:05;;;;;;;22.30;10.93;;;;;;;19.37;100.00;101771.84;4929553;29;20586;-76
2023/07/10 06:10:33;;;;;;;21.50;9.63;;;;;;;19.40;100.00;101768.13;4925156;29;20557;-73
2023/07/10 06:13:00;;;;;;;20.45;9.68;;;;;;;19.38;100.00;101762.16;4927281;29;20134;-75
2023/07/10 06:15:26;;;;;;;17.33;9.20;;;;;;;19.44;100.00;101770.81;4928485;29;20051;-75
2023/07/10 06:17:53;;;;;;;17.23;9.05;;;;;;;19.51;100.00;101770.63;4930462;29;20064;-75
2023/07/10 06:20:20;;;;;;;17.73;8.88;;;;;;;19.47;100.00;101765.06;4927841;29;20051;-76
2023/07/10 06:22:46;;;;;;;19.35;8.82;;;;;;;19.56;100.00;101773.66;4929466;29;20429;-75
2023/07/10 06:25:13;;;;;;;17.30;7.82;;;;;;;19.62;100.00;101769.00;4930059;29;20052;-74
2023/07/10 06:27:39;;;;;;;19.45;7.60;;;;;;;19.66;100.00;101764.06;4925197;29;20059;-75
2023/07/10 06:30:06;;;;;;;16.10;6.68;;;;;;;19.58;100.00;101756.28;4930533;29;20056;-76
2023/07/10 06:32:35;;;;;;;18.02;6.50;;;;;;;19.67;100.00;101762.00;4924283;29;20043;-73
2023/07/10 06:35:03;;;;;;;17.35;7.22;;;;;;;19.65;100.00;101759.63;4924479;29;20060;-72
2023/07/10 06:37:29;;;;;;;19.52;7.80;;;;;;;19.77;100.00;101758.81;4927263;29;20687;-74
2023/07/10 06:40:13;;;;;;;15.20;6.70;;;;;;;19.85;100.00;101750.91;4925830;29;20086;-72
2023/07/10 06:42:41;;;;;;;17.77;7.75;;;;;;;19.95;100.00;101757.41;4930290;29;20056;-73
2023/07/10 06:45:10;;;;;;;17.00;8.48;;;;;;;19.92;100.00;101759.13;4927289;29;20479;-70
2023/07/10 06:47:43;;;;;;;16.45;8.00;;;;;;;20.00;100.00;101757.63;4929213;29;20052;-73
2023/07/10 06:50:13;;;;;;;17.42;6.35;;;;;;;20.13;100.00;101761.16;4926428;29;20062;-72
2023/07/10 06:52:42;;;;;;;18.58;6.75;;;;;;;20.28;100.00;101758.66;4930891;29;20070;-72
2023/07/10 06:55:14;;;;;;;18.60;6.63;;;;;;;20.34;100.00;101751.13;4927802;29;20139;-72
2023/07/10 06:57:41;;;;;;;17.40;6.40;;;;;;;20.45;100.00;101763.63;4929174;29;20087;-72
2023/07/10 07:00:10;;;;;;;13.43;5.75;;;;;;;20.56;100.00;101758.38;4930535;29;20059;-71
2023/07/10 07:02:37;;;;;;;22.30;6.85;;;;;;;20.59;100.00;101748.94;4927127;29;20051;-71
2023/07/10 07:05:05;;;;;;;15.07;6.55;;;;;;;20.70;100.00;101757.81;4930379;29;20506;-72
2023/07/10 07:07:34;;;;;;;14.10;6.10;;;;;;;20.76;100.00;101753.13;4928982;29;20196;-71
2023/07/10 07:10:00;;;;;;;13.05;5.63;;;;;;;20.78;100.00;101747.81;4922938;29;20127;-73
2023/07/10 07:12:27;;;;;;;15.30;5.80;;;;;;;20.63;100.00;101748.81;4925806;29;20063;-71
2023/07/10 07:14:54;;;;;;;13.75;5.43;;;;;;;20.73;100.00;101756.09;4930506;29;20060;-72
2023/07/10 07:17:20;;;;;;;13.80;5.80;;;;;;;20.82;100.00;101742.03;4928183;29;20135;-73
2023/07/10 07:19:47;;;;;;;14.60;5.25;;;;;;;20.77;100.00;101748.25;4929527;29;20066;-72
2023/07/10 07:22:14;;;;;;;12.88;5.38;;;;;;;20.86;100.00;101751.91;4926703;29;20056;-72
2023/07/10 07:24:42;;;;;;;11.15;4.68;;;;;;;20.70;100.00;101749.34;4924337;29;20169;-72
2023/07/10 07:27:08;;;;;;;13.30;6.10;;;;;;;20.80;100.00;101745.31;4926307;29;20170;-71
2023/07/10 07:29:35;;;;;;;13.18;5.93;;;;;;;20.91;100.00;101762.63;4929013;29;20565;-73
2023/07/10 07:32:03;;;;;;;10.32;5.60;;;;;;;21.04;100.00;101759.72;4925602;29;20142;-74
2023/07/10 07:34:30;;;;;;;16.05;6.15;;;;;;;21.11;100.00;101774.38;4924741;29;20058;-74
2023/07/10 07:36:57;;;;;;;13.60;5.88;;;;;;;21.09;100.00;101759.91;4926343;29;20075;-77
2023/07/10 07:39:28;;;;;;;15.18;5.85;;;;;;;21.10;100.00;101760.69;4926488;29;20134;-77
2023/07/10 07:41:54;;;;;;;12.95;4.78;;;;;;;20.90;100.00;101763.09;4930275;29;20466;-78
2023/07/10 07:44:21;;;;;;;15.13;5.90;;;;;;;21.06;100.00;101760.06;4927894;29;20079;-78
2023/07/10 07:46:47;;;;;;;14.25;5.80;;;;;;;21.17;100.00;101754.75;4926452;29;20115;-78
2023/07/10 07:49:14;;;;;;;11.95;4.72;;;;;;;21.36;100.00;101753.53;4932078;29;20083;-72
2023/07/10 07:51:42;;;;;;;14.60;5.20;;;;;;;21.47;100.00;101765.22;4932395;29;20059;-71
2023/07/10 07:54:13;;;;;;;10.57;3.88;;;;;;;21.51;100.00;101761.00;4929917;29;20063;-75
2023/07/10 07:56:40;;;;;;;9.20;3.15;;;;;;;21.20;100.00;101748.94;4930205;29;20048;-74
2023/07/10 07:59:06;;;;;;;13.63;4.05;;;;;;;21.21;100.00;101750.53;4931656;29;20108;-75
2023/07/10 08:01:33;;;;;;;10.88;3.22;;;;;;;21.21;100.00;101756.19;4928998;29;20134;-77
2023/07/10 08:04:00;;;;;;;7.70;2.47;;;;;;;21.25;100.00;101751.16;4931003;29;20134;-75
2023/07/10 08:06:28;;;;;;;10.68;3.60;;;;;;;21.36;100.00;101754.34;4930348;29;20052;-72
2023/07/10 08:08:54;;;;;;;6.28;3.13;;;;;;;21.39;100.00;101742.09;4931755;29;20055;-78
2023/07/10 08:11:21;;;;;;;7.25;2.83;;;;;;;21.43;100.00;101751.22;4930957;29;20123;-75
2023/07/10 08:13:49;;;;;;;10.75;2.95;;;;;;;21.54;100.00;101757.19;4932380;29;20091;-78
2023/07/10 08:16:16;;;;;;;9.70;2.63;;;;;;;21.59;100.00;101745.28;4929645;29;20055;-79
2023/07/10 08:18:42;;;;;;;7.65;2.53;;;;;;;21.61;100.00;101742.75;4932153;29;20056;-78
2023/07/10 08:21:12;;;;;;;7.93;2.83;;;;;;;21.69;100.00;101748.94;4933119;29;20131;-77
2023/07/10 08:23:38;;;;;;;9.25;2.17;;;;;;;21.59;100.00;101748.09;4933144;29;20100;-78
2023/07/10 08:26:06;;;;;;;3.63;1.17;;;;;;;21.22;100.00;101737.16;4941395;29;20056;-77
2023/07/10 08:28:33;;;;;;;7.95;2.50;;;;;;;21.26;100.00;101752.75;4924308;29;20043;-77
2023/07/10 08:31:01;;;;;;;9.23;2.95;;;;;;;21.20;100.00;101753.81;4932712;29;20139;-77
2023/07/10 08:33:27;;;;;;;5.10;2.45;;;;;;;21.23;100.00;101750.84;4933233;29;20059;-77
2023/07/10 08:35:59;;;;;;;9.40;2.95;;;;;;;21.15;100.00;101763.69;4932084;29;20134;-77
2023/07/10 08:38:26;;;;;;;9.50;2.78;;;;;;;21.02;100.00;101753.75;4932859;29;20828;-76
2023/07/10 08:41:00;;;;;;;7.00;2.88;;;;;;;21.15;100.00;101752.41;4928596;29;20055;-76
2023/07/10 08:43:30;;;;;;;10.13;3.40;;;;;;;21.33;100.00;101754.50;4932882;29;20091;-77
2023/07/10 08:46:06;;;;;;;11.88;3.63;;;;;;;21.44;100.00;101752.78;4932395;29;20118;-77
2023/07/10 08:48:36;;;;;;;11.02;3.28;;;;;;;21.58;100.00;101759.88;4932966;29;20066;-79
2023/07/10 08:51:27;;;;;;;14.85;3.10;;;;;;;21.68;100.00;101753.81;4931596;29;20099;-77
2023/07/10 08:54:01;;;;;;;8.10;2.83;;;;;;;21.60;100.00;101763.06;4928875;29;20142;-76
2023/07/10 08:56:34;;;;;;;10.20;3.30;;;;;;;21.69;100.00;101749.72;4932919;28;20102;-72
2023/07/10 08:59:27;;;;;;;8.48;3.08;;;;;;;21.63;100.00;101745.94;4928466;29;20052;-75
2023/07/10 09:01:56;;;;;;;7.43;2.58;;;;;;;21.69;100.00;101743.25;4916991;29;20246;-75
2023/07/10 09:04:23;;;;;;;11.10;3.25;;;;;;;21.86;100.00;101738.88;4931052;29;20056;-75
2023/07/10 09:06:53;;;;;;;8.38;2.72;;;;;;;22.03;100.00;101743.75;4926537;29;20047;-75
2023/07/10 09:09:42;;;;;;;7.90;2.95;;;;;;;22.14;100.00;101735.56;4930232;29;20054;-75
2023/07/10 09:12:15;;;;;;;9.68;3.17;;;;;;;22.34;100.00;101737.16;4930319;29;20069;-72
2023/07/10 09:14:51;;;;;;;5.97;2.50;;;;;;;22.22;100.00;101726.75;4931420;29;20114;-78
2023/07/10 09:17:35;;;;;;;9.25;2.53;;;;;;;22.11;100.00;101730.06;4926608;29;20507;-74
2023/07/10 09:20:06;;;;;;;7.78;2.33;;;;;;;22.17;100.00;101731.00;4928279;29;20147;-73
2023/07/10 09:22:35;;;;;;;10.80;2.78;;;;;;;22.37;100.00;101739.03;4929532;29;20055;-76
2023/07/10 09:25:12;;;;;;;7.65;2.30;;;;;;;22.38;100.00;101730.06;4931354;29;20074;-77
2023/07/10 09:27:43;;;;;;;2.63;1.00;;;;;;;22.18;100.00;101738.25;4924585;29;20087;-75
2023/07/10 09:30:47;;;;;;;6.85;2.42;;;;;;;22.51;100.00;101735.53;4932070;29;20055;-78
2023/07/10 09:33:16;;;;;;;9.30;2.25;;;;;;;22.52;100.00;101735.06;4937901;28;20083;-75
2023/07/10 09:35:43;;;;;;;8.52;2.38;;;;;;;22.53;100.00;101739.47;4928431;29;20740;-75
2023/07/10 09:38:12;;;;;;;6.85;2.22;;;;;;;22.80;100.00;101747.09;4916395;29;20064;-76
2023/07/10 09:40:38;;;;;;;7.45;2.08;;;;;;;22.89;100.00;101741.41;4928519;29;20499;-77
2023/07/10 09:43:13;;;;;;;10.38;2.70;;;;;;;22.91;100.00;101733.22;4944358;29;20079;-76
2023/07/10 09:45:43;;;;;;;4.77;2.30;;;;;;;22.98;100.00;101738.56;4920510;29;20554;-76
2023/07/10 09:48:25;;;;;;;6.68;2.13;;;;;;;23.06;100.00;101745.44;4932150;29;20598;-76
2023/07/10 09:50:53;;;;;;;7.75;2.38;;;;;;;23.19;100.00;101737.50;4930702;29;20063;-75
2023/07/10 09:53:45;;;;;;;4.82;1.85;;;;;;;22.98;100.00;101735.72;4928705;29;20047;-75
2023/07/10 09:56:25;;;;;;;5.13;1.88;;;;;;;23.15;100.00;101740.50;4928644;29;20056;-74
2023/07/10 09:58:54;;;;;;;5.03;1.63;;;;;;;23.13;100.00;101742.25;4924415;29;20379;-73
2023/07/10 10:01:28;;;;;;;6.70;2.00;;;;;;;23.16;100.00;101738.47;4928560;29;20107;-75
2023/07/10 10:03:55;;;;;;;6.43;2.78;;;;;;;23.26;100.00;101737.16;4923421;29;20052;-74
2023/07/10 10:06:24;;;;;;;9.40;2.42;;;;;;;23.40;100.00;101739.28;4930660;29;20058;-72
2023/07/10 10:08:51;;;;;;;5.80;2.35;;;;;;;23.54;100.00;101735.72;4927224;29;20130;-74
2023/07/10 10:11:31;;;;;;;7.88;2.25;;;;;;;23.52;100.00;101732.59;4930287;29;20498;-74
2023/07/10 10:14:00;;;;;;;9.88;2.92;;;;;;;23.55;100.00;101728.75;4930042;29;20048;-75
2023/07/10 10:16:36;;;;;;;8.75;2.40;;;;;;;23.72;100.00;101729.94;4923139;29;20084;-74
2023/07/10 10:19:18;;;;;;;9.68;2.70;;;;;;;23.73;100.00;101720.91;4930386;29;20486;-74
2023/07/10 10:21:45;;;;;;;12.60;2.78;;;;;;;23.93;100.00;101723.16;4925158;29;20087;-75
2023/07/10 10:24:13;;;;;;;6.20;2.13;;;;;;;23.95;100.00;101729.09;4922912;29;20107;-75
2023/07/10 10:26:53;;;;;;;4.03;1.58;;;;;;;23.85;100.00;101728.41;4925229;29;20056;-74
2023/07/10 10:29:58;;;;;;;11.23;2.60;;;;;;;23.93;100.00;101726.75;4929375;29;20052;-74
2023/07/10 10:32:25;;;;;;;5.75;1.83;;;;;;;24.19;100.00;101727.00;4928731;29;20106;-74
2023/07/10 10:34:57;;;;;;;8.45;2.30;;;;;;;24.29;100.00;101723.63;4922655;29;20158;-73
2023/07/10 10:37:42;;;;;;;7.88;2.00;;;;;;;24.46;100.00;101723.13;4927415;29;20072;-73
2023/07/10 10:40:23;;;;;;;6.22;2.13;;;;;;;24.59;100.00;101720.75;4927163;29;20150;-73
2023/07/10 10:43:02;;;;;;;7.47;2.47;;;;;;;24.65;100.00;101728.13;4944209;29;20085;-74
2023/07/10 10:45:46;;;;;;;7.53;2.00;;;;;;;24.50;100.00;101735.84;4927138;29;20312;-74
2023/07/10 10:48:26;;;;;;;5.43;1.52;;;;;;;24.52;100.00;101735.38;4927748;29;20134;-75
2023/07/10 10:51:20;;;;;;;6.63;1.73;;;;;;;24.46;100.00;101737.34;4910965;29;20136;-75
2023/07/10 10:54:04;;;;;;;7.00;2.15;;;;;;;24.64;100.00;101731.47;4919383;29;20172;-74
2023/07/10 10:56:49;;;;;;;9.88;1.85;;;;;;;24.57;100.00;101721.25;4927093;29;20040;-75
2023/07/10 10:59:30;;;;;;;2.60;0.85;;;;;;;24.11;100.00;101728.66;4925175;29;20474;-75
2023/07/10 11:02:42;;;;;;;10.73;3.22;;;;;;;24.55;100.00;101714.50;4938978;28;20108;-75
2023/07/10 11:05:14;;;;;;;5.95;1.65;;;;;;;24.24;100.00;101715.75;4922597;29;20473;-74
2023/07/10 11:07:44;;;;;;;9.73;2.20;;;;;;;24.56;100.00;101711.16;4925303;29;20048;-75
2023/07/10 11:10:18;;;;;;;6.13;2.38;;;;;;;24.51;100.00;101700.50;4926783;29;20062;-74
2023/07/10 11:12:45;;;;;;;6.13;2.05;;;;;;;24.74;100.00;101704.47;4918043;29;20127;-73
2023/07/10 11:15:17;;;;;;;4.40;1.90;;;;;;;25.00;100.00;101705.44;4929333;29;20056;-75
2023/07/10 11:17:54;;;;;;;8.02;2.10;;;;;;;25.26;100.00;101709.19;4923669;29;20052;-73
2023/07/10 11:20:24;;;;;;;5.88;1.67;;;;;;;25.58;100.00;101708.88;4923015;29;20054;-73